createdAt,value
2023-02-15T00:00:14.991Z,103014.73
2023-02-15T00:02:42.701Z,103011.07
2023-02-15T00:05:11.108Z,103014.34
2023-02-15T00:07:38.792Z,103010.77
2023-02-15T00:10:07.419Z,103011.16
2023-02-15T00:12:35.449Z,103008.74
2023-02-15T00:15:03.291Z,103006.75
2023-02-15T00:17:31.481Z,103004.73
2023-02-15T00:19:59.194Z,103013.68
2023-02-15T00:22:28.270Z,103004.73
2023-02-15T00:24:55.930Z,103004.73
2023-02-15T00:27:23.669Z,103004.37
2023-02-15T00:29:51.405Z,102999.91
2023-02-15T00:32:19.165Z,102997.53
2023-02-15T00:34:46.864Z,102991.45
2023-02-15T00:37:14.612Z,102995.89
2023-02-15T00:39:42.379Z,102994.72
2023-02-15T00:42:10.275Z,102997.10
2023-02-15T00:44:37.972Z,102997.46
2023-02-15T00:47:05.632Z,103003.94
2023-02-15T00:49:33.403Z,102996.25
2023-02-15T00:52:01.117Z,102996.65
2023-02-15T00:54:28.875Z,102993.02
2023-02-15T00:56:56.514Z,102986.05
2023-02-15T00:59:24.287Z,102982.84
2023-02-15T01:01:52.032Z,102994.59
2023-02-15T01:04:19.882Z,102985.73
2023-02-15T01:06:47.544Z,102991.02
2023-02-15T01:09:15.703Z,102991.80
2023-02-15T01:11:43.382Z,102988.57
2023-02-15T01:14:11.106Z,102984.55
2023-02-15T01:16:38.742Z,102990.23
2023-02-15T01:19:06.454Z,102991.02
2023-02-15T01:21:36.409Z,102998.54
2023-02-15T01:24:04.272Z,102995.66
2023-02-15T01:26:32.672Z,102995.14
2023-02-15T01:29:00.467Z,102998.34
2023-02-15T01:31:28.298Z,102995.08
2023-02-15T01:33:56.014Z,102991.88
2023-02-15T01:36:23.809Z,102989.45
2023-02-15T01:38:51.632Z,102998.67
2023-02-15T01:41:22.343Z,102993.84
2023-02-15T01:43:56.585Z,102997.01
2023-02-15T01:46:40.433Z,102990.20
2023-02-15T01:49:18.914Z,102988.99
2023-02-15T01:51:49.773Z,102989.45
2023-02-15T01:54:29.648Z,102983.11
2023-02-15T01:57:05.541Z,102988.83
2023-02-15T01:59:36.014Z,102994.06
2023-02-15T02:02:06.225Z,102984.02
2023-02-15T02:04:42.155Z,102973.49
2023-02-15T02:07:11.903Z,102975.95
2023-02-15T02:09:39.643Z,102985.37
2023-02-15T02:12:08.711Z,102966.86
2023-02-15T02:14:37.107Z,102975.69
2023-02-15T02:17:17.275Z,102968.43
2023-02-15T02:20:19.042Z,102972.05
2023-02-15T02:23:08.643Z,102966.46
2023-02-15T02:25:45.127Z,102970.62
2023-02-15T02:28:40.788Z,102974.25
2023-02-15T02:31:11.625Z,102976.57
2023-02-15T02:33:56.206Z,102981.41
2023-02-15T02:36:40.321Z,102984.09
2023-02-15T02:39:36.530Z,102980.43
2023-02-15T02:42:12.761Z,102977.45
2023-02-15T02:44:45.728Z,102980.98
2023-02-15T02:47:26.289Z,102987.36
2023-02-15T02:50:07.482Z,102982.52
2023-02-15T02:52:55.814Z,102981.73
2023-02-15T02:55:26.220Z,102975.95
2023-02-15T02:58:03.193Z,102981.15
2023-02-15T03:00:37.872Z,102981.77
2023-02-15T03:03:11.866Z,102980.79
2023-02-15T03:05:43.848Z,102977.52
2023-02-15T03:08:12.984Z,102976.73
2023-02-15T03:10:42.660Z,102971.89
2023-02-15T03:13:11.038Z,102982.81
2023-02-15T03:16:02.896Z,102977.62
2023-02-15T03:18:37.322Z,102972.38
2023-02-15T03:21:07.537Z,102972.32
2023-02-15T03:23:38.308Z,102969.96
2023-02-15T03:26:09.849Z,102976.47
2023-02-15T03:28:48.022Z,102976.18
2023-02-15T03:31:18.981Z,102977.35
2023-02-15T03:33:57.891Z,102968.52
2023-02-15T03:36:48.440Z,102972.22
2023-02-15T03:39:35.693Z,102976.30
2023-02-15T03:42:24.734Z,102975.78
2023-02-15T03:45:01.023Z,102981.02
2023-02-15T03:47:36.526Z,102980.66
2023-02-15T03:50:27.078Z,102981.38
2023-02-15T03:52:57.019Z,102979.74
2023-02-15T03:55:24.814Z,102981.38
2023-02-15T03:58:11.317Z,102977.16
2023-02-15T04:01:03.727Z,102983.56
2023-02-15T04:03:39.029Z,102985.92
2023-02-15T04:06:06.984Z,102983.50
2023-02-15T04:08:53.333Z,102983.50
2023-02-15T04:11:20.983Z,102979.05
2023-02-15T04:13:48.699Z,102979.84
2023-02-15T04:16:16.451Z,102979.77
2023-02-15T04:19:03.824Z,102989.88
2023-02-15T04:21:51.204Z,102976.14
2023-02-15T04:24:38.325Z,102986.90
2023-02-15T04:27:07.880Z,102986.02
2023-02-15T04:29:35.616Z,102985.73
2023-02-15T04:32:04.200Z,102986.41
2023-02-15T04:34:31.996Z,102990.47
2023-02-15T04:36:59.690Z,102989.65
2023-02-15T04:39:27.336Z,102989.65
2023-02-15T04:41:55.134Z,102989.75
2023-02-15T04:44:22.865Z,102984.09
2023-02-15T04:46:50.501Z,102986.90
2023-02-15T04:49:18.296Z,102983.27
2023-02-15T04:51:45.907Z,102978.83
2023-02-15T04:54:13.644Z,102979.64
2023-02-15T04:56:41.520Z,102984.55
2023-02-15T04:59:11.481Z,102983.86
2023-02-15T05:01:39.501Z,102979.84
2023-02-15T05:04:07.276Z,102971.30
2023-02-15T05:06:35.396Z,102967.34
2023-02-15T05:09:03.665Z,102983.11
2023-02-15T05:11:31.364Z,102981.87
2023-02-15T05:13:59.179Z,102976.93
2023-02-15T05:16:27.685Z,102975.39
2023-02-15T05:18:55.491Z,102977.42
2023-02-15T05:21:23.265Z,102975.39
2023-02-15T05:23:50.963Z,102975.91
2023-02-15T05:26:41.048Z,102979.91
2023-02-15T05:29:09.580Z,102972.22
2023-02-15T05:31:38.005Z,102975.81
2023-02-15T05:34:05.789Z,102971.30
2023-02-15T05:36:33.528Z,102985.40
2023-02-15T05:39:01.328Z,102969.60
2023-02-15T05:41:29.002Z,102973.33
2023-02-15T05:43:58.707Z,102971.30
2023-02-15T05:46:26.436Z,102973.82
2023-02-15T05:48:54.183Z,102965.65
2023-02-15T05:51:21.809Z,102981.12
2023-02-15T05:53:49.534Z,102974.64
2023-02-15T05:56:17.416Z,102978.56
2023-02-15T05:58:45.225Z,102977.02
2023-02-15T06:01:14.982Z,102978.73
2023-02-15T06:03:43.323Z,102979.15
2023-02-15T06:06:11.262Z,102977.26
2023-02-15T06:08:39.873Z,102983.24
2023-02-15T06:11:08.184Z,102984.74
2023-02-15T06:13:38.702Z,102988.02
2023-02-15T06:16:07.765Z,102989.23
2023-02-15T06:18:35.978Z,102995.14
2023-02-15T06:21:03.947Z,102990.17
2023-02-15T06:23:31.712Z,102996.19
2023-02-15T06:25:59.576Z,102990.47
2023-02-15T06:28:27.716Z,102993.67
2023-02-15T06:30:55.674Z,102991.61
2023-02-15T06:33:24.045Z,102995.24
2023-02-15T06:35:51.717Z,102998.41
2023-02-15T06:38:19.717Z,102994.42
2023-02-15T06:40:47.628Z,103000.08
2023-02-15T06:43:15.600Z,103003.61
2023-02-15T06:45:44.286Z,103001.45
2023-02-15T06:48:13.306Z,103007.11
2023-02-15T06:50:40.997Z,103007.93
2023-02-15T06:53:08.715Z,103003.91
2023-02-15T06:55:36.416Z,103004.27
2023-02-15T06:58:04.044Z,103005.12
2023-02-15T07:00:31.755Z,103005.54
2023-02-15T07:03:00.436Z,103008.81
2023-02-15T07:05:32.869Z,103007.63
2023-02-15T07:08:01.422Z,103014.20
2023-02-15T07:10:30.119Z,103011.39
2023-02-15T07:12:58.000Z,103018.03
2023-02-15T07:15:26.494Z,103021.40
2023-02-15T07:17:54.264Z,103023.20
2023-02-15T07:20:24.303Z,103018.00
2023-02-15T07:22:52.718Z,103022.91
2023-02-15T07:25:20.624Z,103020.09
2023-02-15T07:27:48.450Z,103018.98
2023-02-15T07:30:19.252Z,103024.54
2023-02-15T07:33:05.955Z,103018.82
2023-02-15T07:35:34.653Z,103027.05
2023-02-15T07:38:03.031Z,103032.84
2023-02-15T07:40:30.914Z,103029.25
2023-02-15T07:43:01.056Z,103034.48
2023-02-15T07:45:29.120Z,103025.36
2023-02-15T07:47:56.823Z,103025.12
2023-02-15T07:50:25.193Z,103017.90
2023-02-15T07:52:52.871Z,103009.89
2023-02-15T07:55:21.107Z,103011.46
2023-02-15T07:57:51.134Z,103003.77
2023-02-15T08:00:22.268Z,103002.53
2023-02-15T08:03:11.414Z,103014.70
2023-02-15T08:05:39.264Z,103009.89
2023-02-15T08:08:07.659Z,103010.94
2023-02-15T08:10:54.220Z,103004.04
2023-02-15T08:13:22.228Z,103008.42
2023-02-15T08:15:51.325Z,102995.11
2023-02-15T08:18:19.156Z,103002.47
2023-02-15T08:20:51.941Z,103004.52
2023-02-15T08:23:19.628Z,103010.19
2023-02-15T08:25:47.344Z,102998.22
2023-02-15T08:28:15.020Z,103008.68
2023-02-15T08:30:42.709Z,102998.67
2023-02-15T08:33:11.977Z,103002.30
2023-02-15T08:35:39.630Z,102995.53
2023-02-15T08:38:07.274Z,102997.23
2023-02-15T08:40:34.995Z,102998.84
2023-02-15T08:43:02.648Z,102987.20
2023-02-15T08:45:30.395Z,102993.28
2023-02-15T08:47:58.038Z,102993.70
2023-02-15T08:50:25.675Z,102994.12
2023-02-15T08:52:53.375Z,102995.77
2023-02-15T08:55:21.212Z,102999.85
2023-02-15T08:57:50.191Z,102993.51
2023-02-15T09:00:19.233Z,102994.33
2023-02-15T09:02:46.956Z,102995.14
2023-02-15T09:05:14.969Z,102991.58
2023-02-15T09:07:42.948Z,102987.49
2023-02-15T09:10:11.931Z,102985.17
2023-02-15T09:12:39.702Z,102989.26
2023-02-15T09:15:07.941Z,102984.81
2023-02-15T09:17:35.635Z,102987.23
2023-02-15T09:20:03.329Z,102985.66
2023-02-15T09:22:33.321Z,102987.30
2023-02-15T09:25:01.011Z,102992.95
2023-02-15T09:27:28.793Z,102987.72
2023-02-15T09:29:56.550Z,102973.52
2023-02-15T09:32:24.165Z,102988.54
2023-02-15T09:34:51.844Z,102981.70
2023-02-15T09:37:19.673Z,102984.16
2023-02-15T09:39:49.082Z,102983.34
2023-02-15T09:42:28.783Z,102982.55
2023-02-15T09:45:24.423Z,102977.32
2023-02-15T09:48:36.823Z,102985.01
2023-02-15T09:51:28.428Z,102978.23
2023-02-15T09:54:33.354Z,102980.69
2023-02-15T09:57:10.610Z,102979.09
2023-02-15T09:59:58.474Z,102971.83
2023-02-15T10:02:38.063Z,102969.87
2023-02-15T10:05:27.816Z,102962.67
2023-02-15T10:08:32.763Z,102968.03
2023-02-15T10:11:26.447Z,102961.16
2023-02-15T10:14:09.305Z,102963.72
2023-02-15T10:17:01.899Z,102966.30
2023-02-15T10:19:59.876Z,102962.77
2023-02-15T10:23:20.847Z,102959.23
2023-02-15T10:26:24.849Z,102956.42
2023-02-15T10:29:11.542Z,102954.04
2023-02-15T10:31:51.475Z,102947.99
2023-02-15T10:34:22.272Z,102949.30
2023-02-15T10:37:28.738Z,102951.78
2023-02-15T10:40:17.214Z,102945.73
2023-02-15T10:43:31.018Z,102939.36
2023-02-15T10:46:14.210Z,102930.07
2023-02-15T10:48:50.997Z,102926.08
2023-02-15T10:51:45.560Z,102923.27
2023-02-15T10:54:52.149Z,102928.59
2023-02-15T10:57:38.441Z,102920.84
2023-02-15T11:00:21.569Z,102918.49
2023-02-15T11:03:29.046Z,102915.68
2023-02-15T11:06:16.416Z,102916.04
2023-02-15T11:09:01.874Z,102915.23
2023-02-15T11:11:42.627Z,102905.94
2023-02-15T11:14:24.124Z,102903.58
2023-02-15T11:16:55.943Z,102901.66
2023-02-15T11:19:34.164Z,102887.49
2023-02-15T11:22:05.990Z,102889.59
2023-02-15T11:24:41.114Z,102890.86
2023-02-15T11:27:14.565Z,102884.81
2023-02-15T11:29:54.374Z,102882.39
2023-02-15T11:32:39.528Z,102869.84
2023-02-15T11:35:26.426Z,102874.64
2023-02-15T11:38:03.179Z,102864.47
2023-02-15T11:40:34.252Z,102858.09
2023-02-15T11:43:40.360Z,102859.01
2023-02-15T11:46:12.333Z,102849.79
2023-02-15T11:48:41.147Z,102855.02
2023-02-15T11:51:15.893Z,102846.16
2023-02-15T11:53:45.512Z,102849.40
2023-02-15T11:56:25.844Z,102843.38
2023-02-15T11:59:12.898Z,102845.41
2023-02-15T12:01:45.868Z,102844.69
2023-02-15T12:04:24.579Z,102832.95
2023-02-15T12:07:03.731Z,102832.63
2023-02-15T12:09:53.332Z,102833.44
2023-02-15T12:12:31.518Z,102840.73
2023-02-15T12:15:02.052Z,102832.63
2023-02-15T12:17:36.888Z,102830.59
2023-02-15T12:20:09.423Z,102833.08
2023-02-15T12:22:39.423Z,102831.48
2023-02-15T12:25:24.822Z,102823.83
2023-02-15T12:27:53.003Z,102818.20
2023-02-15T12:30:39.966Z,102814.60
2023-02-15T12:33:48.082Z,102812.58
2023-02-15T12:36:32.592Z,102804.53
2023-02-15T12:39:15.458Z,102803.36
2023-02-15T12:42:07.698Z,102797.27
2023-02-15T12:44:38.030Z,102798.91
2023-02-15T12:47:07.044Z,102794.04
2023-02-15T12:49:36.940Z,102790.02
2023-02-15T12:52:10.066Z,102789.16
2023-02-15T12:54:43.603Z,102777.03
2023-02-15T12:57:28.077Z,102777.42
2023-02-15T13:00:00.414Z,102776.18
2023-02-15T13:02:43.106Z,102774.97
2023-02-15T13:05:42.110Z,102769.67
2023-02-15T13:08:21.950Z,102772.52
2023-02-15T13:11:09.009Z,102766.86
2023-02-15T13:13:57.339Z,102765.66
2023-02-15T13:16:46.430Z,102766.05
2023-02-15T13:19:16.746Z,102754.30
2023-02-15T13:21:49.943Z,102752.67
2023-02-15T13:24:28.793Z,102747.02
2023-02-15T13:27:13.164Z,102735.63
2023-02-15T13:29:47.031Z,102730.37
2023-02-15T13:32:24.018Z,102729.59
2023-02-15T13:34:51.914Z,102731.58
2023-02-15T13:37:28.677Z,102727.52
2023-02-15T13:40:24.175Z,102725.53
2023-02-15T13:42:51.751Z,102722.69
2023-02-15T13:45:35.849Z,102713.37
2023-02-15T13:48:12.999Z,102716.60
2023-02-15T13:50:47.688Z,102713.76
2023-02-15T13:53:31.016Z,102711.34
2023-02-15T13:56:33.325Z,102708.07
2023-02-15T13:59:13.146Z,102703.20
2023-02-15T14:01:50.490Z,102695.94
2023-02-15T14:04:44.264Z,102697.96
2023-02-15T14:07:17.964Z,102699.99
2023-02-15T14:10:18.685Z,102697.54
2023-02-15T14:12:54.512Z,102691.49
2023-02-15T14:15:48.951Z,102696.33
2023-02-15T14:18:54.524Z,102703.23
2023-02-15T14:21:41.962Z,102701.20
2023-02-15T14:24:39.420Z,102693.88
2023-02-15T14:27:26.727Z,102695.09
2023-02-15T14:30:15.194Z,102708.85
2023-02-15T14:33:32.807Z,102714.12
2023-02-15T14:36:04.973Z,102709.64
2023-02-15T14:38:56.030Z,102705.55
2023-02-15T14:41:34.059Z,102708.39
2023-02-15T14:44:19.014Z,102703.91
2023-02-15T14:47:01.271Z,102699.04
2023-02-15T14:49:35.167Z,102695.80
2023-02-15T14:52:09.136Z,102702.67
2023-02-15T14:54:36.777Z,102690.09
2023-02-15T14:57:04.389Z,102685.54
2023-02-15T15:00:00.351Z,102689.56
2023-02-15T15:02:51.523Z,102692.77
2023-02-15T15:05:37.616Z,102694.73
2023-02-15T15:08:07.389Z,102700.35
2023-02-15T15:10:42.706Z,102701.10
2023-02-15T15:13:40.330Z,102706.34
2023-02-15T15:16:30.013Z,102703.85
2023-02-15T15:18:58.617Z,102701.79
2023-02-15T15:21:51.017Z,102698.98
2023-02-15T15:24:40.320Z,102698.95
2023-02-15T15:27:45.332Z,102695.31
2023-02-15T15:30:15.758Z,102694.92
2023-02-15T15:33:08.186Z,102697.73
2023-02-15T15:35:58.673Z,102692.44
2023-02-15T15:38:55.037Z,102690.05
2023-02-15T15:41:45.434Z,102693.71
2023-02-15T15:44:37.684Z,102693.65
2023-02-15T15:47:33.217Z,102690.38
2023-02-15T15:50:01.608Z,102695.22
2023-02-15T15:52:31.063Z,102695.22
2023-02-15T15:55:07.242Z,102697.15
2023-02-15T15:57:40.722Z,102706.40
2023-02-15T16:00:47.170Z,102709.96
2023-02-15T16:03:24.104Z,102712.84
2023-02-15T16:05:58.392Z,102717.65
2023-02-15T16:08:33.883Z,102721.67
2023-02-15T16:11:10.160Z,102720.00
2023-02-15T16:13:37.922Z,102713.43
2023-02-15T16:16:06.263Z,102722.29
2023-02-15T16:18:35.227Z,102715.39
2023-02-15T16:21:04.190Z,102714.61
2023-02-15T16:23:37.611Z,102712.88
2023-02-15T16:26:17.716Z,102718.50
2023-02-15T16:28:53.849Z,102720.04
2023-02-15T16:31:24.507Z,102721.93
2023-02-15T16:33:55.933Z,102723.53
2023-02-15T16:36:26.671Z,102728.73
2023-02-15T16:38:54.282Z,102722.65
2023-02-15T16:41:29.247Z,102732.40
2023-02-15T16:44:01.851Z,102733.57
2023-02-15T16:46:34.981Z,102746.03
2023-02-15T16:49:08.958Z,102742.34
2023-02-15T16:51:38.074Z,102738.67
2023-02-15T16:54:17.174Z,102742.53
2023-02-15T16:56:47.991Z,102740.51
2023-02-15T16:59:39.645Z,102746.91
2023-02-15T17:02:30.616Z,102741.13
2023-02-15T17:05:08.351Z,102750.84
2023-02-15T17:07:41.868Z,102761.83
2023-02-15T17:10:31.046Z,102766.57
2023-02-15T17:13:04.768Z,102756.92
2023-02-15T17:15:41.756Z,102758.10
2023-02-15T17:18:25.151Z,102747.21
2023-02-15T17:20:55.806Z,102756.10
2023-02-15T17:23:50.902Z,102759.67
2023-02-15T17:26:24.800Z,102759.31
2023-02-15T17:28:56.149Z,102759.73
2023-02-15T17:31:30.580Z,102754.50
2023-02-15T17:34:00.440Z,102768.14
2023-02-15T17:36:33.135Z,102767.58
2023-02-15T17:39:00.837Z,102774.38
2023-02-15T17:41:30.426Z,102776.77
2023-02-15T17:43:58.726Z,102775.07
2023-02-15T17:46:27.545Z,102777.03
2023-02-15T17:48:58.034Z,102775.66
2023-02-15T17:51:25.863Z,102778.02
2023-02-15T17:54:12.334Z,102778.30
2023-02-15T17:56:40.837Z,102782.66
2023-02-15T17:59:08.806Z,102783.44
2023-02-15T18:01:58.265Z,102773.77
2023-02-15T18:04:44.750Z,102775.40
2023-02-15T18:07:32.992Z,102788.67
2023-02-15T18:10:19.175Z,102778.99
2023-02-15T18:12:46.808Z,102772.16
2023-02-15T18:15:14.759Z,102779.84
2023-02-15T18:17:48.892Z,102783.02
2023-02-15T18:20:19.412Z,102789.00
2023-02-15T18:22:50.314Z,102790.18
2023-02-15T18:25:20.049Z,102792.17
2023-02-15T18:27:48.216Z,102798.52
2023-02-15T18:30:18.661Z,102805.91
2023-02-15T18:32:48.108Z,102808.59
2023-02-15T18:35:21.149Z,102802.96
2023-02-15T18:37:50.548Z,102812.15
2023-02-15T18:40:20.661Z,102811.73
2023-02-15T18:42:50.014Z,102812.41
2023-02-15T18:45:19.444Z,102806.27
2023-02-15T18:47:48.186Z,102805.80
2023-02-15T18:50:18.740Z,102807.38
2023-02-15T18:52:48.589Z,102809.73
2023-02-15T18:55:20.339Z,102808.95
2023-02-15T18:57:49.692Z,102816.20
2023-02-15T19:00:18.475Z,102819.45
2023-02-15T19:02:46.560Z,102817.45
2023-02-15T19:05:15.136Z,102816.20
2023-02-15T19:07:44.886Z,102816.11
2023-02-15T19:10:18.254Z,102818.43
2023-02-15T19:12:46.868Z,102813.98
2023-02-15T19:15:29.395Z,102816.20
2023-02-15T19:17:57.565Z,102826.15
2023-02-15T19:20:34.086Z,102826.97
2023-02-15T19:23:02.990Z,102830.59
2023-02-15T19:25:33.282Z,102833.44
2023-02-15T19:28:01.877Z,102828.60
2023-02-15T19:30:32.572Z,102826.51
2023-02-15T19:33:01.031Z,102828.14
2023-02-15T19:35:32.913Z,102829.78
2023-02-15T19:38:03.391Z,102827.13
2023-02-15T19:40:34.092Z,102824.74
2023-02-15T19:43:02.213Z,102815.62
2023-02-15T19:45:32.950Z,102824.94
2023-02-15T19:48:03.805Z,102815.32
2023-02-15T19:50:34.459Z,102819.77
2023-02-15T19:53:03.857Z,102818.20
2023-02-15T19:55:35.923Z,102817.05
2023-02-15T19:58:04.378Z,102825.69
2023-02-15T20:00:34.455Z,102818.49
2023-02-15T20:03:02.558Z,102816.11
2023-02-15T20:05:32.167Z,102816.96
2023-02-15T20:08:00.157Z,102819.87
2023-02-15T20:10:31.027Z,102820.30
2023-02-15T20:12:59.011Z,102819.12
2023-02-15T20:15:35.945Z,102809.93
2023-02-15T20:18:05.213Z,102814.05
2023-02-15T20:20:38.589Z,102806.04
2023-02-15T20:23:08.121Z,102817.77
2023-02-15T20:25:35.822Z,102812.19
2023-02-15T20:28:03.622Z,102817.16
2023-02-15T20:30:33.435Z,102819.22
2023-02-15T20:33:01.373Z,102817.25
2023-02-15T20:35:29.987Z,102820.52
2023-02-15T20:38:01.560Z,102824.55
2023-02-15T20:40:32.851Z,102818.49
2023-02-15T20:43:01.209Z,102817.32
2023-02-15T20:45:32.433Z,102827.98
2023-02-15T20:48:02.589Z,102824.64
2023-02-15T20:50:33.575Z,102829.87
2023-02-15T20:53:03.865Z,102828.60
2023-02-15T20:55:33.050Z,102836.32
2023-02-15T20:58:00.711Z,102830.63
2023-02-15T21:00:30.736Z,102824.09
2023-02-15T21:03:00.802Z,102830.20
2023-02-15T21:05:34.479Z,102829.35
2023-02-15T21:08:15.320Z,102814.90
2023-02-15T21:10:46.507Z,102814.12
2023-02-15T21:13:25.215Z,102813.36
2023-02-15T21:15:54.667Z,102814.67
2023-02-15T21:18:28.068Z,102816.30
2023-02-15T21:20:59.612Z,102826.09
2023-02-15T21:23:34.803Z,102825.59
2023-02-15T21:26:03.185Z,102821.47
2023-02-15T21:28:31.464Z,102835.92
2023-02-15T21:31:00.705Z,102841.84
2023-02-15T21:33:28.934Z,102841.95
2023-02-15T21:35:58.826Z,102839.00
2023-02-15T21:38:29.400Z,102833.44
2023-02-15T21:41:17.169Z,102833.27
2023-02-15T21:44:03.330Z,102828.24
2023-02-15T21:46:43.198Z,102837.73
2023-02-15T21:49:11.895Z,102834.39
2023-02-15T21:51:57.986Z,102830.01
2023-02-15T21:54:25.686Z,102836.32
2023-02-15T21:56:55.116Z,102828.86
2023-02-15T21:59:22.818Z,102826.73
2023-02-15T22:01:52.134Z,102822.29
2023-02-15T22:04:29.194Z,102813.36
2023-02-15T22:06:57.758Z,102811.47
2023-02-15T22:09:28.130Z,102813.88
2023-02-15T22:11:56.286Z,102816.27
2023-02-15T22:14:38.255Z,102811.89
2023-02-15T22:17:14.630Z,102815.69
2023-02-15T22:19:42.779Z,102815.32
2023-02-15T22:22:10.477Z,102805.32
2023-02-15T22:24:38.313Z,102805.32
2023-02-15T22:27:07.284Z,102809.30
2023-02-15T22:29:35.326Z,102812.05
2023-02-15T22:32:03.218Z,102810.26
2023-02-15T22:34:33.459Z,102815.98
2023-02-15T22:37:01.168Z,102810.71
2023-02-15T22:39:28.933Z,102803.13
2023-02-15T22:41:56.695Z,102811.30
2023-02-15T22:44:28.815Z,102817.38
2023-02-15T22:46:56.969Z,102820.72
2023-02-15T22:49:24.706Z,102820.66
2023-02-15T22:51:53.138Z,102825.63
2023-02-15T22:54:21.295Z,102821.24
2023-02-15T22:56:54.376Z,102813.63
2023-02-15T22:59:25.731Z,102808.42
2023-02-15T23:01:54.294Z,102816.57
2023-02-15T23:04:26.068Z,102808.49
2023-02-15T23:06:54.530Z,102810.13
2023-02-15T23:09:23.028Z,102807.67
2023-02-15T23:11:52.872Z,102806.89
2023-02-15T23:14:23.555Z,102801.16
2023-02-15T23:16:51.326Z,102814.80
2023-02-15T23:19:19.043Z,102814.90
2023-02-15T23:21:47.388Z,102817.32
2023-02-15T23:24:22.393Z,102820.23
2023-02-15T23:26:51.051Z,102819.90
2023-02-15T23:29:22.203Z,102811.07
2023-02-15T23:31:54.208Z,102812.80
2023-02-15T23:34:27.456Z,102812.71
2023-02-15T23:36:55.228Z,102811.59
2023-02-15T23:39:44.057Z,102815.98
2023-02-15T23:42:29.994Z,102805.87
2023-02-15T23:44:58.033Z,102802.57
2023-02-15T23:47:49.198Z,102802.87
2023-02-15T23:50:22.619Z,102800.94
2023-02-15T23:52:54.906Z,102793.80
2023-02-15T23:55:23.558Z,102797.83
2023-02-15T23:57:51.435Z,102789.46
